createdAt,value
2022-10-25T00:01:51.771Z,75.05
2022-10-25T00:06:55.220Z,80.45
2022-10-25T00:11:59.927Z,81.28
2022-10-25T00:17:03.529Z,73.60
2022-10-25T00:22:07.044Z,71.78
2022-10-25T00:27:11.785Z,79.22
2022-10-25T00:32:15.197Z,73.15
2022-10-25T00:37:18.839Z,69.35
2022-10-25T00:42:25.583Z,75.10
2022-10-25T00:47:38.928Z,70.40
2022-10-25T00:52:44.629Z,73.03
2022-10-25T00:57:55.634Z,73.10
2022-10-25T01:02:59.309Z,78.75
2022-10-25T01:08:02.936Z,72.07
2022-10-25T01:13:07.945Z,74.78
2022-10-25T01:18:16.238Z,69.75
2022-10-25T01:23:32.058Z,70.93
2022-10-25T01:28:50.919Z,73.20
2022-10-25T01:33:59.233Z,72.45
2022-10-25T01:39:11.499Z,72.95
2022-10-25T01:44:27.703Z,79.10
2022-10-25T01:49:42.594Z,77.75
2022-10-25T01:54:45.886Z,91.13
2022-10-25T02:00:07.370Z,88.32
2022-10-25T02:05:26.215Z,92.15
2022-10-25T02:16:23.299Z,92.80
2022-10-25T02:21:29.744Z,108.03
2022-10-25T02:26:35.538Z,86.90
2022-10-25T02:31:39.461Z,90.20
2022-10-25T02:36:44.177Z,88.20
2022-10-25T02:41:47.541Z,85.57
2022-10-25T02:46:50.881Z,85.18
2022-10-25T02:51:55.561Z,82.03
2022-10-25T02:56:58.981Z,82.55
2022-10-25T03:09:09.929Z,72.43
2022-10-25T03:14:13.328Z,82.63
2022-10-25T03:19:16.690Z,77.07
2022-10-25T03:24:21.495Z,86.53
2022-10-25T03:29:24.855Z,72.43
2022-10-25T03:34:28.455Z,75.55
2022-10-25T03:39:33.274Z,82.50
2022-10-25T03:44:36.622Z,80.38
2022-10-25T03:49:40.029Z,90.47
2022-10-25T03:54:44.721Z,97.05
2022-10-25T03:59:48.074Z,93.80
2022-10-25T04:04:51.430Z,101.10
2022-10-25T04:09:56.214Z,118.97
2022-10-25T04:14:59.582Z,133.23
2022-10-25T04:20:02.989Z,121.57
2022-10-25T04:25:08.692Z,113.75
2022-10-25T04:30:13.118Z,114.00
2022-10-25T04:35:16.911Z,114.80
2022-10-25T04:40:24.091Z,113.68
2022-10-25T04:45:28.298Z,121.22
2022-10-25T04:50:31.820Z,104.93
2022-10-25T04:55:37.527Z,102.95
2022-10-25T05:00:41.135Z,93.95
2022-10-25T05:05:44.593Z,94.47
2022-10-25T05:10:55.882Z,88.93
2022-10-25T05:15:59.892Z,85.10
2022-10-25T05:21:06.896Z,75.05
2022-10-25T05:26:13.656Z,77.47
2022-10-25T05:31:20.295Z,79.35
2022-10-25T05:36:25.416Z,70.00
2022-10-25T05:41:33.400Z,71.20
2022-10-25T05:46:39.672Z,75.90
2022-10-25T05:51:43.177Z,66.90
2022-10-25T05:56:48.061Z,78.47
2022-10-25T06:01:51.948Z,63.90
2022-10-25T06:06:55.675Z,65.28
2022-10-25T06:12:01.150Z,64.18
2022-10-25T06:17:05.921Z,53.20
2022-10-25T06:22:09.442Z,53.85
2022-10-25T06:27:14.261Z,46.72
2022-10-25T06:32:17.645Z,48.85
2022-10-25T06:37:25.184Z,47.53
2022-10-25T06:42:30.136Z,41.95
2022-10-25T06:47:34.576Z,39.55
2022-10-25T06:52:37.935Z,35.03
2022-10-25T06:57:42.679Z,39.75
2022-10-25T07:02:55.254Z,41.72
2022-10-25T07:07:58.767Z,45.03
2022-10-25T07:13:03.618Z,38.97
2022-10-25T07:18:07.152Z,32.67
2022-10-25T07:23:10.698Z,32.03
2022-10-25T07:28:15.526Z,36.65
2022-10-25T07:33:20.944Z,34.78
2022-10-25T07:38:27.685Z,30.17
2022-10-25T07:43:33.629Z,32.85
2022-10-25T07:48:37.271Z,29.65
2022-10-25T07:53:40.746Z,32.88
2022-10-25T07:58:45.801Z,33.00
2022-10-25T08:03:49.525Z,36.38
2022-10-25T08:08:53.210Z,46.65
2022-10-25T08:13:58.401Z,36.88
2022-10-25T08:19:01.787Z,44.85
2022-10-25T08:24:06.022Z,42.63
2022-10-25T08:29:11.293Z,51.00
2022-10-25T08:34:14.721Z,47.60
2022-10-25T08:39:18.449Z,39.55
2022-10-25T08:44:30.871Z,36.15
2022-10-25T08:49:42.434Z,41.83
2022-10-25T08:54:46.922Z,44.15
2022-10-25T08:59:54.549Z,50.55
2022-10-25T09:04:57.911Z,42.58
2022-10-25T09:10:11.023Z,37.03
2022-10-25T09:15:26.981Z,40.90
2022-10-25T09:20:34.541Z,34.53
2022-10-25T09:25:47.605Z,27.58
2022-10-25T09:30:57.366Z,27.85
2022-10-25T09:36:01.030Z,28.25
2022-10-25T09:41:06.910Z,26.35
2022-10-25T09:46:16.512Z,24.02
2022-10-25T09:51:25.594Z,21.58
2022-10-25T09:56:29.066Z,26.90
2022-10-25T10:01:37.787Z,18.95
2022-10-25T10:06:41.796Z,21.48
2022-10-25T10:11:48.729Z,21.77
2022-10-25T10:16:57.390Z,18.58
2022-10-25T10:22:02.831Z,15.65
2022-10-25T10:27:09.661Z,21.52
2022-10-25T10:32:25.738Z,21.83
2022-10-25T10:37:31.200Z,18.25
2022-10-25T10:42:36.487Z,16.48
2022-10-25T10:47:45.084Z,14.07
2022-10-25T10:52:58.161Z,18.33
2022-10-25T10:58:06.036Z,15.15
2022-10-25T11:03:59.181Z,18.20
2022-10-25T11:09:17.113Z,12.20
2022-10-25T11:14:21.853Z,28.95
2022-10-25T11:19:43.411Z,21.92
2022-10-25T11:24:56.733Z,9.48
2022-10-25T11:30:14.256Z,16.00
2022-10-25T11:35:39.481Z,14.40
2022-10-25T11:40:49.448Z,10.60
2022-10-25T11:46:00.410Z,8.02
2022-10-25T11:51:13.634Z,9.27
2022-10-25T11:56:28.783Z,12.57
2022-10-25T12:01:48.375Z,16.75
2022-10-25T12:07:01.585Z,11.77
2022-10-25T12:12:09.611Z,11.38
2022-10-25T12:17:20.679Z,16.55
2022-10-25T12:22:29.889Z,6.53
2022-10-25T12:27:36.462Z,9.48
2022-10-25T12:32:44.093Z,17.08
2022-10-25T12:37:56.454Z,11.25
2022-10-25T12:43:14.521Z,14.25
2022-10-25T12:48:31.759Z,10.00
2022-10-25T12:54:06.080Z,13.68
2022-10-25T12:59:17.121Z,17.85
2022-10-25T13:04:58.502Z,20.60
2022-10-25T13:10:06.878Z,30.70
2022-10-25T13:15:19.609Z,22.20
2022-10-25T13:20:49.497Z,37.60
2022-10-25T13:31:32.112Z,15.80
2022-10-25T13:36:48.026Z,8.88
2022-10-25T13:42:18.121Z,12.63
2022-10-25T13:47:38.141Z,10.52
2022-10-25T13:52:54.750Z,22.95
2022-10-25T13:58:02.444Z,10.60
2022-10-25T14:03:22.121Z,8.65
2022-10-25T14:08:29.142Z,11.50
2022-10-25T14:13:46.173Z,10.40
2022-10-25T14:18:51.024Z,11.65
2022-10-25T14:23:55.631Z,8.27
2022-10-25T14:29:18.777Z,12.35
2022-10-25T14:34:24.711Z,12.18
2022-10-25T14:39:30.771Z,6.65
2022-10-25T14:44:46.800Z,12.63
2022-10-25T14:49:50.555Z,10.25
2022-10-25T14:54:59.076Z,17.40
2022-10-25T15:00:05.944Z,20.52
2022-10-25T15:05:19.381Z,17.70
2022-10-25T15:10:43.702Z,17.60
2022-10-25T15:15:50.607Z,23.35
2022-10-25T15:21:04.091Z,29.77
2022-10-25T15:26:28.682Z,23.95
2022-10-25T15:31:33.878Z,20.65
2022-10-25T15:36:37.292Z,21.38
2022-10-25T15:41:40.844Z,49.50
2022-10-25T15:46:45.844Z,61.53
2022-10-25T15:51:49.556Z,47.33
2022-10-25T15:56:54.173Z,42.10
2022-10-25T16:01:59.503Z,57.90
2022-10-25T16:07:02.869Z,43.10
2022-10-25T16:12:08.390Z,28.02
2022-10-25T16:17:14.412Z,14.65
2022-10-25T16:22:17.902Z,25.08
2022-10-25T16:27:21.398Z,43.63
2022-10-25T16:32:26.182Z,63.28
2022-10-25T16:37:29.521Z,20.25
2022-10-25T16:42:34.958Z,25.80
2022-10-25T16:47:40.466Z,28.65
2022-10-25T16:52:43.901Z,45.17
2022-10-25T17:02:53.605Z,37.22
2022-10-25T17:07:58.018Z,42.90
2022-10-25T17:13:03.502Z,44.30
2022-10-25T17:18:08.654Z,80.72
2022-10-25T17:23:13.582Z,55.45
2022-10-25T17:28:17.049Z,36.80
2022-10-25T17:33:22.485Z,35.78
2022-10-25T17:38:26.357Z,38.53
2022-10-25T17:43:29.831Z,42.85
2022-10-25T17:48:34.873Z,52.88
2022-10-25T17:53:38.501Z,58.45
2022-10-25T17:58:47.197Z,61.38
2022-10-25T18:03:56.665Z,55.92
2022-10-25T18:09:00.347Z,63.13
2022-10-25T18:14:04.123Z,51.17
2022-10-25T18:19:13.491Z,61.67
2022-10-25T18:24:17.096Z,62.95
2022-10-25T18:29:23.563Z,63.30
2022-10-25T18:34:29.919Z,50.78
2022-10-25T18:39:33.415Z,49.95
2022-10-25T18:44:36.873Z,40.65
2022-10-25T18:49:41.770Z,43.25
2022-10-25T18:54:45.177Z,44.25
2022-10-25T18:59:48.838Z,44.65
2022-10-25T19:04:53.778Z,42.58
2022-10-25T19:09:57.283Z,64.38
2022-10-25T19:15:00.745Z,35.88
2022-10-25T19:20:07.667Z,38.53
2022-10-25T19:25:11.343Z,36.70
2022-10-25T19:30:15.043Z,46.67
2022-10-25T19:35:20.916Z,44.58
2022-10-25T19:40:24.420Z,51.58
2022-10-25T19:45:27.977Z,37.67
2022-10-25T19:50:33.094Z,38.47
2022-10-25T19:55:36.752Z,45.05
2022-10-25T20:00:40.567Z,42.75
2022-10-25T20:05:45.341Z,38.17
2022-10-25T20:10:48.910Z,47.22
2022-10-25T20:15:55.554Z,38.28
2022-10-25T20:21:02.374Z,43.35
2022-10-25T20:26:14.257Z,41.25
2022-10-25T20:31:19.438Z,42.45
2022-10-25T20:36:46.258Z,41.60
2022-10-25T20:42:06.012Z,38.25
2022-10-25T20:47:10.463Z,49.75
2022-10-25T20:52:15.313Z,41.65
2022-10-25T20:57:19.013Z,38.42
2022-10-25T21:02:23.140Z,41.13
2022-10-25T21:07:30.965Z,44.45
2022-10-25T21:12:36.111Z,45.40
2022-10-25T21:17:39.595Z,46.50
2022-10-25T21:22:47.031Z,40.70
2022-10-25T21:27:54.965Z,36.20
2022-10-25T21:32:58.420Z,35.33
2022-10-25T21:38:03.186Z,40.75
2022-10-25T21:43:09.264Z,41.50
2022-10-25T21:48:12.691Z,41.67
2022-10-25T21:53:17.507Z,45.28
2022-10-25T21:58:20.855Z,43.03
2022-10-25T22:03:26.929Z,43.10
2022-10-25T22:08:32.530Z,39.72
2022-10-25T22:13:36.412Z,41.78
2022-10-25T22:18:40.153Z,38.95
2022-10-25T22:23:45.037Z,39.00
2022-10-25T22:28:52.746Z,41.05
2022-10-25T22:33:58.183Z,41.83
2022-10-25T22:39:03.935Z,43.17
2022-10-25T22:44:07.463Z,38.83
2022-10-25T22:49:11.290Z,46.78
2022-10-25T22:54:15.955Z,42.50
2022-10-25T22:59:19.426Z,41.13
2022-10-25T23:04:22.953Z,42.00
2022-10-25T23:19:39.335Z,40.45
2022-10-25T23:24:44.048Z,37.38
2022-10-25T23:29:47.372Z,38.78
2022-10-25T23:34:52.543Z,42.28
2022-10-25T23:39:59.671Z,39.38
2022-10-25T23:45:05.363Z,42.03
2022-10-25T23:50:10.205Z,48.92
2022-10-25T23:55:15.082Z,41.75
